createdAt,value
2024-04-18T00:02:30.166Z,4.74
2024-04-18T00:05:34.903Z,4.80
2024-04-18T00:08:39.576Z,4.74
2024-04-18T00:11:43.058Z,4.65
2024-04-18T00:14:52.407Z,4.67
2024-04-18T00:17:54.943Z,4.61
2024-04-18T00:20:59.681Z,4.56
2024-04-18T00:24:01.684Z,4.51
2024-04-18T00:27:06.468Z,4.48
2024-04-18T00:30:11.727Z,4.49
2024-04-18T00:33:16.405Z,4.43
2024-04-18T00:36:18.493Z,4.33
2024-04-18T00:39:23.307Z,4.27
2024-04-18T00:42:27.932Z,4.21
2024-04-18T00:45:32.674Z,4.28
2024-04-18T00:48:38.009Z,4.26
2024-04-18T00:51:42.941Z,4.20
2024-04-18T00:54:44.899Z,4.13
2024-04-18T00:57:50.339Z,4.13
2024-04-18T01:00:58.012Z,4.15
2024-04-18T01:04:03.573Z,4.08
2024-04-18T01:07:05.985Z,4.03
2024-04-18T01:10:11.371Z,4.01
2024-04-18T01:13:13.512Z,4.00
2024-04-18T01:16:22.300Z,4.05
2024-04-18T01:19:24.646Z,4.06
2024-04-18T01:22:31.123Z,3.99
2024-04-18T01:25:33.519Z,3.98
2024-04-18T01:28:41.022Z,3.83
2024-04-18T01:31:43.139Z,3.89
2024-04-18T01:34:48.128Z,3.83
2024-04-18T01:37:50.372Z,3.74
2024-04-18T01:40:55.183Z,3.71
2024-04-18T01:43:59.991Z,3.67
2024-04-18T01:47:04.543Z,3.63
2024-04-18T01:50:06.604Z,3.58
2024-04-18T01:53:11.087Z,3.47
2024-04-18T01:56:13.162Z,3.47
2024-04-18T01:59:20.547Z,3.50
2024-04-18T02:02:22.653Z,3.54
2024-04-18T02:05:27.384Z,3.56
2024-04-18T02:08:29.331Z,3.46
2024-04-18T02:11:34.066Z,3.55
2024-04-18T02:14:41.309Z,3.51
2024-04-18T02:17:43.335Z,3.53
2024-04-18T02:20:47.894Z,3.51
2024-04-18T02:23:49.973Z,3.53
2024-04-18T02:26:54.470Z,3.47
2024-04-18T02:29:59.165Z,3.52
2024-04-18T02:33:04.192Z,3.45
2024-04-18T02:36:09.209Z,3.40
2024-04-18T02:39:11.177Z,3.39
2024-04-18T02:42:17.581Z,3.41
2024-04-18T02:45:24.949Z,3.40
2024-04-18T02:48:29.697Z,3.38
2024-04-18T02:51:32.092Z,3.38
2024-04-18T02:54:36.841Z,3.32
2024-04-18T02:57:38.907Z,3.32
2024-04-18T03:00:46.164Z,3.27
2024-04-18T03:03:48.431Z,3.30
2024-04-18T03:06:53.239Z,3.28
2024-04-18T03:09:55.274Z,3.28
2024-04-18T03:12:59.954Z,3.22
2024-04-18T03:16:04.844Z,3.15
2024-04-18T03:19:14.630Z,3.21
2024-04-18T03:22:19.574Z,3.16
2024-04-18T03:25:21.624Z,3.14
2024-04-18T03:28:26.250Z,3.09
2024-04-18T03:31:33.591Z,3.13
2024-04-18T03:34:35.707Z,3.02
2024-04-18T03:37:40.434Z,3.00
2024-04-18T03:40:45.236Z,2.99
2024-04-18T03:43:49.890Z,3.00
2024-04-18T03:46:57.053Z,2.97
2024-04-18T03:50:01.760Z,2.88
2024-04-18T03:53:05.118Z,2.83
2024-04-18T03:56:09.794Z,2.85
2024-04-18T03:59:11.695Z,2.84
2024-04-18T04:02:19.151Z,2.92
2024-04-18T04:05:23.676Z,2.89
2024-04-18T04:08:25.822Z,2.80
2024-04-18T04:11:32.903Z,2.73
2024-04-18T04:14:35.119Z,2.83
2024-04-18T04:17:47.860Z,2.86
2024-04-18T04:20:49.947Z,2.89
2024-04-18T04:23:55.137Z,2.92
2024-04-18T04:26:57.076Z,2.94
2024-04-18T04:30:02.173Z,2.99
2024-04-18T04:33:09.481Z,3.06
2024-04-18T04:36:11.409Z,3.12
2024-04-18T04:39:16.117Z,3.18
2024-04-18T04:42:18.213Z,3.18
2024-04-18T04:45:22.762Z,3.19
2024-04-18T04:48:32.148Z,3.39
2024-04-18T04:51:35.780Z,3.80
2024-04-18T04:54:43.485Z,3.97
2024-04-18T04:57:48.477Z,4.18
2024-04-18T05:00:55.072Z,4.46
2024-04-18T05:04:00.095Z,4.55
2024-04-18T05:07:04.841Z,4.82
2024-04-18T05:10:08.777Z,5.19
2024-04-18T05:13:13.651Z,5.51
2024-04-18T05:16:16.229Z,5.67
2024-04-18T05:19:24.143Z,5.51
2024-04-18T05:22:28.798Z,5.44
2024-04-18T05:25:30.830Z,5.31
2024-04-18T05:28:42.400Z,5.30
2024-04-18T05:31:44.347Z,5.40
2024-04-18T05:34:51.666Z,5.43
2024-04-18T05:37:56.801Z,5.36
2024-04-18T05:41:01.462Z,5.29
2024-04-18T05:44:06.032Z,5.34
2024-04-18T05:47:11.326Z,5.49
2024-04-18T05:50:18.536Z,5.37
2024-04-18T05:53:23.238Z,5.40
2024-04-18T05:56:27.935Z,5.57
2024-04-18T05:59:32.615Z,5.76
2024-04-18T06:02:37.310Z,6.10
2024-04-18T06:05:44.588Z,6.21
2024-04-18T06:08:51.331Z,6.38
2024-04-18T06:11:56.026Z,6.57
2024-04-18T06:15:01.230Z,6.61
2024-04-18T06:18:06.278Z,6.71
2024-04-18T06:21:14.045Z,7.12
2024-04-18T06:24:18.736Z,7.86
2024-04-18T06:27:23.464Z,8.21
2024-04-18T06:30:28.085Z,8.73
2024-04-18T06:33:33.259Z,9.47
2024-04-18T06:36:40.762Z,9.80
2024-04-18T06:39:45.988Z,10.18
2024-04-18T06:42:50.721Z,10.42
2024-04-18T06:45:56.548Z,10.92
2024-04-18T06:49:01.296Z,11.17
2024-04-18T06:52:09.111Z,11.53
2024-04-18T06:55:13.647Z,11.90
2024-04-18T06:58:18.325Z,12.20
2024-04-18T07:01:22.982Z,12.56
2024-04-18T07:04:27.743Z,12.88
2024-04-18T07:07:35.102Z,13.02
2024-04-18T07:10:39.650Z,13.13
2024-04-18T07:13:44.300Z,13.63
2024-04-18T07:16:48.793Z,14.16
2024-04-18T07:19:53.447Z,14.25
2024-04-18T07:23:00.623Z,14.33
2024-04-18T07:26:05.329Z,14.51
2024-04-18T07:29:09.834Z,14.36
2024-04-18T07:32:14.522Z,14.15
2024-04-18T07:35:19.214Z,14.58
2024-04-18T07:38:26.801Z,14.76
2024-04-18T07:41:31.453Z,15.15
2024-04-18T07:44:36.124Z,15.33
2024-04-18T07:47:41.661Z,14.92
2024-04-18T07:50:46.396Z,15.45
2024-04-18T07:53:53.528Z,15.67
2024-04-18T07:56:58.398Z,15.61
2024-04-18T08:00:05.792Z,16.34
2024-04-18T08:03:13.003Z,16.12
2024-04-18T08:09:29.973Z,16.69
2024-04-18T08:12:40.364Z,16.36
2024-04-18T08:18:55.520Z,16.16
2024-04-18T08:22:01.668Z,15.31
2024-04-18T08:25:10.580Z,15.71
2024-04-18T08:28:15.487Z,15.97
2024-04-18T08:31:19.969Z,15.57
2024-04-18T08:34:25.253Z,15.21
2024-04-18T08:37:30.328Z,16.41
2024-04-18T08:40:37.708Z,15.94
2024-04-18T08:43:45.255Z,14.40
2024-04-18T08:46:53.167Z,13.76
2024-04-18T08:49:58.493Z,13.39
2024-04-18T08:53:04.041Z,14.17
2024-04-18T08:56:14.141Z,14.83
2024-04-18T08:59:18.796Z,16.23
2024-04-18T09:02:24.297Z,15.88
2024-04-18T09:05:28.994Z,15.35
2024-04-18T09:08:34.866Z,15.07
2024-04-18T09:11:42.058Z,14.27
2024-04-18T09:14:46.924Z,13.71
2024-04-18T09:18:03.444Z,13.84
2024-04-18T09:21:11.199Z,14.50
2024-04-18T09:24:15.882Z,14.41
2024-04-18T09:27:23.505Z,14.51
2024-04-18T09:30:28.923Z,14.45
2024-04-18T09:33:35.848Z,14.57
2024-04-18T09:36:43.381Z,14.26
2024-04-18T09:39:49.872Z,14.44
2024-04-18T09:43:02.187Z,14.11
2024-04-18T09:46:09.714Z,13.90
2024-04-18T09:49:15.544Z,14.03
2024-04-18T09:52:20.957Z,13.64
2024-04-18T09:55:28.660Z,13.44
2024-04-18T09:58:39.527Z,13.61
2024-04-18T10:01:45.979Z,14.05
2024-04-18T10:04:50.851Z,14.22
2024-04-18T10:07:57.695Z,14.38
2024-04-18T10:11:10.028Z,14.05
2024-04-18T10:14:18.247Z,13.95
2024-04-18T10:17:26.766Z,13.77
2024-04-18T10:20:31.893Z,14.15
2024-04-18T10:23:36.614Z,14.55
2024-04-18T10:26:41.518Z,13.98
2024-04-18T10:29:59.003Z,13.77
2024-04-18T10:33:03.780Z,13.57
2024-04-18T10:36:11.296Z,13.37
2024-04-18T10:39:32.511Z,13.07
2024-04-18T10:42:41.200Z,12.46
2024-04-18T10:45:49.214Z,12.24
2024-04-18T10:48:58.397Z,12.47
2024-04-18T10:52:05.038Z,12.60
2024-04-18T10:55:10.227Z,12.80
2024-04-18T10:58:16.700Z,12.84
2024-04-18T11:01:24.140Z,13.31
2024-04-18T11:04:29.801Z,14.20
2024-04-18T11:07:34.360Z,13.90
2024-04-18T11:10:41.335Z,13.89
2024-04-18T11:13:46.069Z,13.39
2024-04-18T11:17:01.826Z,13.68
2024-04-18T11:20:07.205Z,13.17
2024-04-18T11:23:15.544Z,13.20
2024-04-18T11:26:21.917Z,13.66
2024-04-18T11:29:29.217Z,14.87
2024-04-18T11:32:36.940Z,15.89
2024-04-18T11:35:41.994Z,16.48
2024-04-18T11:38:46.670Z,17.00
2024-04-18T11:41:51.142Z,16.47
2024-04-18T11:44:55.862Z,16.49
2024-04-18T11:48:03.148Z,16.75
2024-04-18T11:51:08.149Z,17.25
2024-04-18T11:54:12.704Z,16.96
2024-04-18T11:57:17.579Z,17.80
2024-04-18T12:00:22.224Z,17.97
2024-04-18T12:03:32.083Z,17.55
2024-04-18T12:06:36.826Z,17.59
2024-04-18T12:09:44.427Z,17.02
2024-04-18T12:12:49.197Z,16.19
2024-04-18T12:15:53.962Z,15.62
2024-04-18T12:19:01.187Z,15.46
2024-04-18T12:22:10.317Z,16.32
2024-04-18T12:25:14.848Z,16.83
2024-04-18T12:28:19.390Z,16.16
2024-04-18T12:31:24.072Z,16.22
2024-04-18T12:34:31.545Z,15.87
2024-04-18T12:37:36.112Z,15.79
2024-04-18T12:40:40.724Z,15.38
2024-04-18T12:43:46.074Z,15.24
2024-04-18T12:46:50.682Z,15.34
2024-04-18T12:49:57.900Z,15.45
2024-04-18T12:53:02.546Z,15.05
2024-04-18T12:56:07.787Z,15.79
2024-04-18T12:59:12.538Z,16.00
2024-04-18T13:02:18.507Z,16.32
2024-04-18T13:05:26.158Z,16.34
2024-04-18T13:08:30.992Z,16.19
2024-04-18T13:11:35.728Z,16.53
2024-04-18T13:14:40.251Z,16.93
2024-04-18T13:17:46.562Z,16.97
2024-04-18T13:20:53.890Z,16.80
2024-04-18T13:23:58.512Z,16.63
2024-04-18T13:27:03.459Z,16.52
2024-04-18T13:30:09.149Z,15.72
2024-04-18T13:33:14.008Z,15.11
2024-04-18T13:36:21.415Z,15.02
2024-04-18T13:39:26.199Z,14.92
2024-04-18T13:42:30.800Z,14.70
2024-04-18T13:45:36.667Z,14.61
2024-04-18T13:48:41.546Z,14.90
2024-04-18T13:51:48.972Z,15.03
2024-04-18T13:54:53.573Z,15.26
2024-04-18T13:57:59.842Z,15.44
2024-04-18T14:01:04.715Z,15.94
2024-04-18T14:04:09.327Z,16.01
2024-04-18T14:07:16.725Z,16.36
2024-04-18T14:10:22.129Z,16.41
2024-04-18T14:13:26.912Z,16.18
2024-04-18T14:16:47.289Z,15.94
2024-04-18T14:19:52.035Z,15.76
2024-04-18T14:22:59.181Z,15.71
2024-04-18T14:26:03.927Z,16.16
2024-04-18T14:29:08.430Z,16.42
2024-04-18T14:32:15.925Z,16.39
2024-04-18T14:35:20.447Z,16.11
2024-04-18T14:38:27.877Z,16.04
2024-04-18T14:41:32.906Z,15.98
2024-04-18T14:44:38.152Z,15.94
2024-04-18T14:47:42.933Z,15.83
2024-04-18T14:50:53.749Z,15.89
2024-04-18T14:54:01.261Z,15.91
2024-04-18T14:57:06.558Z,15.62
2024-04-18T15:00:12.081Z,15.73
2024-04-18T15:03:17.248Z,15.33
2024-04-18T15:06:22.617Z,14.98
2024-04-18T15:09:30.164Z,14.81
2024-04-18T15:12:35.064Z,15.13
2024-04-18T15:15:40.128Z,14.52
2024-04-18T15:18:45.020Z,14.64
2024-04-18T15:21:49.943Z,14.74
2024-04-18T15:24:57.311Z,14.84
2024-04-18T15:28:02.141Z,14.84
2024-04-18T15:31:07.269Z,14.57
2024-04-18T15:34:12.473Z,14.20
2024-04-18T15:37:17.138Z,13.91
2024-04-18T15:40:24.700Z,13.94
2024-04-18T15:43:29.773Z,14.05
2024-04-18T15:46:34.607Z,14.20
2024-04-18T15:49:39.610Z,14.41
2024-04-18T15:52:46.761Z,14.39
2024-04-18T15:55:54.367Z,14.33
2024-04-18T15:59:00.762Z,14.54
2024-04-18T16:02:09.590Z,14.36
2024-04-18T16:05:14.236Z,14.28
2024-04-18T16:08:19.135Z,14.26
2024-04-18T16:11:26.569Z,14.08
2024-04-18T16:14:31.213Z,13.99
2024-04-18T16:17:36.009Z,13.97
2024-04-18T16:20:40.498Z,13.76
2024-04-18T16:23:44.995Z,13.69
2024-04-18T16:26:52.273Z,13.52
2024-04-18T16:29:56.946Z,13.22
2024-04-18T16:33:01.541Z,13.28
2024-04-18T16:36:06.971Z,13.29
2024-04-18T16:39:12.159Z,13.32
2024-04-18T16:42:19.720Z,13.45
2024-04-18T16:45:24.236Z,13.07
2024-04-18T16:48:29.026Z,13.18
2024-04-18T16:51:34.019Z,12.97
2024-04-18T16:54:38.722Z,13.07
2024-04-18T16:57:46.499Z,12.99
2024-04-18T17:00:51.593Z,12.77
2024-04-18T17:03:56.453Z,12.78
2024-04-18T17:07:01.400Z,12.72
2024-04-18T17:10:07.298Z,12.68
2024-04-18T17:13:14.601Z,12.81
2024-04-18T17:16:19.433Z,12.67
2024-04-18T17:19:24.401Z,12.57
2024-04-18T17:22:29.551Z,12.54
2024-04-18T17:25:34.104Z,12.43
2024-04-18T17:28:41.546Z,12.49
2024-04-18T17:31:46.359Z,12.40
2024-04-18T17:34:51.185Z,12.42
2024-04-18T17:37:55.818Z,12.24
2024-04-18T17:41:03.683Z,12.15
2024-04-18T17:44:11.432Z,12.08
2024-04-18T17:47:16.100Z,12.06
2024-04-18T17:50:20.746Z,12.03
2024-04-18T17:53:25.379Z,11.95
2024-04-18T17:56:30.175Z,11.89
2024-04-18T17:59:37.733Z,11.87
2024-04-18T18:02:42.464Z,11.84
2024-04-18T18:05:47.707Z,11.77
2024-04-18T18:08:52.338Z,11.77
2024-04-18T18:11:57.066Z,11.64
2024-04-18T18:15:04.575Z,11.59
2024-04-18T18:18:10.886Z,11.54
2024-04-18T18:21:15.650Z,11.47
2024-04-18T18:24:20.305Z,11.44
2024-04-18T18:27:24.950Z,11.36
2024-04-18T18:30:29.655Z,11.18
2024-04-18T18:33:34.345Z,11.26
2024-04-18T18:36:36.882Z,11.23
2024-04-18T18:39:41.902Z,11.30
2024-04-18T18:42:47.598Z,11.18
2024-04-18T18:45:55.378Z,11.08
2024-04-18T18:49:00.074Z,11.04
2024-04-18T18:52:04.866Z,10.92
2024-04-18T18:55:09.737Z,10.86
2024-04-18T18:58:11.822Z,10.88
2024-04-18T19:01:19.119Z,10.89
2024-04-18T19:04:21.448Z,10.81
2024-04-18T19:07:26.262Z,10.73
2024-04-18T19:10:28.559Z,10.53
2024-04-18T19:13:33.397Z,10.71
2024-04-18T19:16:40.656Z,10.70
2024-04-18T19:19:42.701Z,10.69
2024-04-18T19:22:48.199Z,10.81
2024-04-18T19:25:52.906Z,10.69
2024-04-18T19:28:55.089Z,10.73
2024-04-18T19:32:02.671Z,10.74
2024-04-18T19:35:05.488Z,10.77
2024-04-18T19:38:10.013Z,10.70
2024-04-18T19:41:12.306Z,10.64
2024-04-18T19:44:16.815Z,10.69
2024-04-18T19:47:24.316Z,10.66
2024-04-18T19:50:28.908Z,10.72
2024-04-18T19:53:30.973Z,10.50
2024-04-18T19:56:35.705Z,10.56
2024-04-18T19:59:41.591Z,10.36
2024-04-18T20:02:49.043Z,10.23
2024-04-18T20:05:53.557Z,10.19
2024-04-18T20:08:55.586Z,10.20
2024-04-18T20:12:01.551Z,10.12
2024-04-18T20:15:04.138Z,10.03
2024-04-18T20:18:11.540Z,10.11
2024-04-18T20:21:16.842Z,10.04
2024-04-18T20:24:21.554Z,9.93
2024-04-18T20:27:26.937Z,9.95
2024-04-18T20:30:31.591Z,9.87
2024-04-18T20:33:36.232Z,9.81
2024-04-18T20:36:40.877Z,9.68
2024-04-18T20:39:43.166Z,9.68
2024-04-18T20:42:48.630Z,9.68
2024-04-18T20:45:58.231Z,9.60
2024-04-18T20:49:03.401Z,9.46
2024-04-18T20:52:08.493Z,9.64
2024-04-18T20:55:13.182Z,9.79
2024-04-18T20:58:15.078Z,9.60
2024-04-18T21:01:20.050Z,9.58
2024-04-18T21:04:24.800Z,9.60
2024-04-18T21:07:29.501Z,9.45
2024-04-18T21:10:31.511Z,9.43
2024-04-18T21:13:36.191Z,9.37
2024-04-18T21:16:38.111Z,9.24
2024-04-18T21:19:45.381Z,9.32
2024-04-18T21:22:49.389Z,9.34
2024-04-18T21:25:54.064Z,9.25
2024-04-18T21:28:57.040Z,9.29
2024-04-18T21:32:01.719Z,9.23
2024-04-18T21:35:06.987Z,9.19
2024-04-18T21:38:11.661Z,9.11
2024-04-18T21:41:16.234Z,9.07
2024-04-18T21:44:18.328Z,8.98
2024-04-18T21:47:22.893Z,8.94
2024-04-18T21:50:27.578Z,8.88
2024-04-18T21:53:32.211Z,8.90
2024-04-18T21:56:34.117Z,8.81
2024-04-18T21:59:38.908Z,8.74
2024-04-18T22:02:41.083Z,8.69
2024-04-18T22:05:48.673Z,8.60
2024-04-18T22:08:53.493Z,8.46
2024-04-18T22:11:58.215Z,8.41
2024-04-18T22:15:00.523Z,8.47
2024-04-18T22:18:06.020Z,8.48
2024-04-18T22:21:14.021Z,8.46
2024-04-18T22:24:18.754Z,8.44
2024-04-18T22:27:23.315Z,8.42
2024-04-18T22:30:25.431Z,8.40
2024-04-18T22:33:31.101Z,8.42
2024-04-18T22:36:38.466Z,8.38
2024-04-18T22:39:40.464Z,8.37
2024-04-18T22:42:45.237Z,8.40
2024-04-18T22:45:47.285Z,8.32
2024-04-18T22:48:52.257Z,8.28
2024-04-18T22:51:59.526Z,8.22
2024-04-18T22:55:04.164Z,8.27
2024-04-18T22:58:08.066Z,8.28
2024-04-18T23:01:12.956Z,8.24
2024-04-18T23:04:15.203Z,8.23
2024-04-18T23:07:22.631Z,8.21
2024-04-18T23:10:24.574Z,8.15
2024-04-18T23:13:29.228Z,8.09
2024-04-18T23:16:33.920Z,8.06
2024-04-18T23:19:38.520Z,8.12
2024-04-18T23:22:43.256Z,8.08
2024-04-18T23:25:47.872Z,8.01
2024-04-18T23:28:52.531Z,7.99
2024-04-18T23:31:54.513Z,8.02
2024-04-18T23:34:59.586Z,8.01
2024-04-18T23:38:04.498Z,8.03
2024-04-18T23:41:09.069Z,8.03
2024-04-18T23:44:11.309Z,8.04
2024-04-18T23:47:15.905Z,8.00
2024-04-18T23:50:48.510Z,8.00
2024-04-18T23:53:56.407Z,7.95
2024-04-18T23:57:00.970Z,7.86
